CNS12 KBED-KEEN
Flight info
| Callsign | CNS12 |
|---|---|
| Flight time | 0h 29m |
| Altitude | 14000 |
| Route | MANCH |
| Aircraft | PC12/L-SDFGRWY/S |
Departure
| Time | 2026-04-25 01:39 |
|---|---|
| Airport | Laurence G Hanscom Field (KBED) |
Arrival
| Time | 2026-04-25 02:08 |
|---|---|
| Airport | Dillant Hopkins Airport (KEEN) |
| Time | Latitude | Longitude | Altitude | Speed | Heading |
|---|---|---|---|---|---|
| 2026-04-25 01:19 | 42.46399 | -71.29080 | 134 ft | 0 kts | 193° |
| 2026-04-25 01:28 | 42.46398 | -71.29080 | 134 ft | 0 kts | 193° |
| 2026-04-25 01:29 | 42.46398 | -71.29081 | 134 ft | 0 kts | 193° |
| 2026-04-25 01:31 | 42.46391 | -71.29082 | 134 ft | 4 kts | 192° |
| 2026-04-25 01:31 | 42.46368 | -71.29136 | 134 ft | 12 kts | 293° |
| 2026-04-25 01:32 | 42.46419 | -71.29242 | 136 ft | 16 kts | 245° |
| 2026-04-25 01:32 | 42.46327 | -71.29345 | 134 ft | 18 kts | 215° |
| 2026-04-25 01:32 | 42.46236 | -71.29450 | 135 ft | 16 kts | 251° |
| 2026-04-25 01:32 | 42.46299 | -71.29580 | 132 ft | 19 kts | 312° |
| 2026-04-25 01:33 | 42.46384 | -71.29720 | 132 ft | 19 kts | 320° |
| 2026-04-25 01:33 | 42.46511 | -71.29794 | 129 ft | 20 kts | 339° |
| 2026-04-25 01:33 | 42.46637 | -71.29862 | 133 ft | 18 kts | 340° |
| 2026-04-25 01:33 | 42.46754 | -71.29924 | 133 ft | 18 kts | 338° |
| 2026-04-25 01:34 | 42.46871 | -71.29985 | 135 ft | 17 kts | 340° |
| 2026-04-25 01:34 | 42.46961 | -71.30035 | 136 ft | 11 kts | 337° |
| 2026-04-25 01:34 | 42.47044 | -71.30030 | 136 ft | 13 kts | 7° |
| 2026-04-25 01:34 | 42.47084 | -71.30023 | 135 ft | 0 kts | 7° |
| 2026-04-25 01:38 | 42.47127 | -71.30015 | 136 ft | 13 kts | 7° |
| 2026-04-25 01:38 | 42.47173 | -71.29893 | 138 ft | 25 kts | 99° |
| 2026-04-25 01:38 | 42.47143 | -71.29414 | 135 ft | 76 kts | 93° |
| 2026-04-25 01:38 | 42.47067 | -71.28602 | 279 ft | 96 kts | 104° |
| 2026-04-25 01:39 | 42.46899 | -71.27673 | 603 ft | 105 kts | 107° |
| 2026-04-25 01:39 | 42.46733 | -71.26694 | 965 ft | 115 kts | 101° |
| 2026-04-25 01:39 | 42.46750 | -71.25538 | 1423 ft | 128 kts | 76° |
| 2026-04-25 01:39 | 42.47306 | -71.24539 | 1938 ft | 143 kts | 38° |
| 2026-04-25 01:40 | 42.48283 | -71.24117 | 2485 ft | 155 kts | 7° |
| 2026-04-25 01:40 | 42.49354 | -71.24328 | 3126 ft | 154 kts | 346° |
| 2026-04-25 01:40 | 42.50362 | -71.24801 | 3742 ft | 155 kts | 345° |
| 2026-04-25 01:40 | 42.51422 | -71.25179 | 4281 ft | 158 kts | 348° |
| 2026-04-25 01:41 | 42.52479 | -71.25513 | 4892 ft | 156 kts | 348° |
| 2026-04-25 01:41 | 42.53559 | -71.25757 | 5423 ft | 159 kts | 352° |
| 2026-04-25 01:41 | 42.54643 | -71.26035 | 6025 ft | 160 kts | 347° |
| 2026-04-25 01:41 | 42.55738 | -71.26332 | 6687 ft | 161 kts | 351° |
| 2026-04-25 01:42 | 42.56852 | -71.26534 | 7182 ft | 168 kts | 348° |
| 2026-04-25 01:42 | 42.58069 | -71.26813 | 7435 ft | 184 kts | 349° |
| 2026-04-25 01:42 | 42.59366 | -71.27116 | 7786 ft | 190 kts | 346° |
| 2026-04-25 01:42 | 42.60630 | -71.27644 | 8043 ft | 197 kts | 331° |
| 2026-04-25 01:43 | 42.61741 | -71.28853 | 8074 ft | 210 kts | 317° |
| 2026-04-25 01:43 | 42.62856 | -71.30102 | 8534 ft | 202 kts | 322° |
| 2026-04-25 01:43 | 42.63894 | -71.31254 | 9133 ft | 192 kts | 314° |
| 2026-04-25 01:43 | 42.64827 | -71.32618 | 9239 ft | 205 kts | 312° |
| 2026-04-25 01:44 | 42.65671 | -71.34218 | 9469 ft | 209 kts | 304° |
| 2026-04-25 01:44 | 42.66330 | -71.35933 | 10024 ft | 200 kts | 297° |
| 2026-04-25 01:44 | 42.66793 | -71.37705 | 10435 ft | 202 kts | 290° |
| 2026-04-25 01:44 | 42.66993 | -71.39650 | 10566 ft | 217 kts | 276° |
| 2026-04-25 01:45 | 42.67015 | -71.41717 | 10722 ft | 219 kts | 278° |
| 2026-04-25 01:45 | 42.66992 | -71.43768 | 11181 ft | 214 kts | 272° |
| 2026-04-25 01:45 | 42.66748 | -71.45736 | 11494 ft | 209 kts | 266° |
| 2026-04-25 01:45 | 42.66591 | -71.47741 | 11284 ft | 219 kts | 275° |
| 2026-04-25 01:46 | 42.66427 | -71.49831 | 10650 ft | 232 kts | 268° |
| 2026-04-25 01:46 | 42.66212 | -71.51932 | 10488 ft | 222 kts | 268° |
| 2026-04-25 01:46 | 42.65940 | -71.54003 | 10246 ft | 220 kts | 263° |
| 2026-04-25 01:46 | 42.65569 | -71.55934 | 9837 ft | 225 kts | 261° |
| 2026-04-25 01:47 | 42.65199 | -71.58039 | 9355 ft | 228 kts | 263° |
| 2026-04-25 01:47 | 42.64962 | -71.60115 | 9133 ft | 217 kts | 272° |
| 2026-04-25 01:47 | 42.65108 | -71.62121 | 8842 ft | 211 kts | 286° |
| 2026-04-25 01:47 | 42.65459 | -71.64050 | 8573 ft | 210 kts | 288° |
| 2026-04-25 01:48 | 42.65839 | -71.65958 | 8307 ft | 209 kts | 289° |
| 2026-04-25 01:48 | 42.66227 | -71.67867 | 8042 ft | 209 kts | 289° |
| 2026-04-25 01:48 | 42.66624 | -71.69763 | 7787 ft | 208 kts | 291° |
| 2026-04-25 01:48 | 42.67129 | -71.71597 | 7532 ft | 207 kts | 292° |
| 2026-04-25 01:49 | 42.67511 | -71.73476 | 7279 ft | 207 kts | 282° |
| 2026-04-25 01:49 | 42.67621 | -71.75401 | 7035 ft | 207 kts | 274° |
| 2026-04-25 01:49 | 42.67619 | -71.77349 | 6782 ft | 205 kts | 273° |
| 2026-04-25 01:49 | 42.67629 | -71.79283 | 6527 ft | 204 kts | 274° |
| 2026-04-25 01:50 | 42.67658 | -71.81208 | 6280 ft | 204 kts | 274° |
| 2026-04-25 01:50 | 42.67689 | -71.83129 | 6015 ft | 203 kts | 274° |
| 2026-04-25 01:50 | 42.67717 | -71.85040 | 5838 ft | 199 kts | 274° |
| 2026-04-25 01:50 | 42.67741 | -71.86867 | 5853 ft | 187 kts | 275° |
| 2026-04-25 01:51 | 42.67763 | -71.88555 | 6012 ft | 173 kts | 275° |
| 2026-04-25 01:51 | 42.67786 | -71.90169 | 6009 ft | 170 kts | 275° |
| 2026-04-25 01:51 | 42.67808 | -71.91757 | 6011 ft | 167 kts | 274° |
| 2026-04-25 01:51 | 42.67831 | -71.93328 | 6012 ft | 166 kts | 274° |
| 2026-04-25 01:52 | 42.67854 | -71.94896 | 6012 ft | 166 kts | 274° |
| 2026-04-25 01:52 | 42.67875 | -71.96471 | 6013 ft | 167 kts | 274° |
| 2026-04-25 01:52 | 42.67895 | -71.98045 | 6013 ft | 167 kts | 274° |
| 2026-04-25 01:52 | 42.67916 | -71.99632 | 6013 ft | 168 kts | 274° |
| 2026-04-25 01:53 | 42.67936 | -72.01216 | 6013 ft | 168 kts | 274° |
| 2026-04-25 01:53 | 42.67956 | -72.02790 | 6013 ft | 169 kts | 274° |
| 2026-04-25 01:53 | 42.67977 | -72.04414 | 6015 ft | 170 kts | 274° |
| 2026-04-25 01:53 | 42.67997 | -72.06011 | 6014 ft | 171 kts | 274° |
| 2026-04-25 01:54 | 42.68017 | -72.07630 | 6015 ft | 172 kts | 274° |
| 2026-04-25 01:54 | 42.68037 | -72.09263 | 5926 ft | 176 kts | 274° |
| 2026-04-25 01:54 | 42.68058 | -72.10960 | 5771 ft | 183 kts | 274° |
| 2026-04-25 01:54 | 42.68079 | -72.12718 | 5614 ft | 188 kts | 274° |
| 2026-04-25 01:55 | 42.68100 | -72.14510 | 5459 ft | 191 kts | 274° |
| 2026-04-25 01:55 | 42.68120 | -72.16325 | 5303 ft | 193 kts | 274° |
| 2026-04-25 01:55 | 42.68141 | -72.18154 | 5147 ft | 194 kts | 274° |
| 2026-04-25 01:55 | 42.68162 | -72.19996 | 4979 ft | 195 kts | 274° |
| 2026-04-25 01:56 | 42.68182 | -72.21824 | 4827 ft | 196 kts | 274° |
| 2026-04-25 01:56 | 42.68202 | -72.23677 | 4669 ft | 196 kts | 274° |
| 2026-04-25 01:56 | 42.68222 | -72.25536 | 4507 ft | 197 kts | 274° |
| 2026-04-25 01:56 | 42.68243 | -72.27399 | 4385 ft | 197 kts | 273° |
| 2026-04-25 01:57 | 42.67901 | -72.31063 | 4076 ft | 200 kts | 248° |
| 2026-04-25 01:57 | 42.67143 | -72.32654 | 3930 ft | 203 kts | 229° |
| 2026-04-25 01:57 | 42.66035 | -72.33839 | 3772 ft | 204 kts | 208° |
| 2026-04-25 01:58 | 42.64705 | -72.34470 | 3624 ft | 203 kts | 189° |
| 2026-04-25 01:58 | 42.63299 | -72.34634 | 3472 ft | 202 kts | 181° |
| 2026-04-25 01:58 | 42.61917 | -72.34416 | 3322 ft | 200 kts | 160° |
| 2026-04-25 01:58 | 42.60716 | -72.33525 | 3167 ft | 196 kts | 136° |
| 2026-04-25 01:59 | 42.59898 | -72.32118 | 3105 ft | 185 kts | 111° |
| 2026-04-25 01:59 | 42.59603 | -72.30500 | 3102 ft | 172 kts | 87° |
| 2026-04-25 01:59 | 42.59848 | -72.28973 | 3111 ft | 163 kts | 61° |
| 2026-04-25 01:59 | 42.60557 | -72.27820 | 3111 ft | 159 kts | 35° |
| 2026-04-25 02:00 | 42.61572 | -72.27268 | 3108 ft | 158 kts | 8° |
| 2026-04-25 02:00 | 42.62659 | -72.27442 | 3109 ft | 160 kts | 342° |
| 2026-04-25 02:00 | 42.63577 | -72.28313 | 3111 ft | 165 kts | 315° |
| 2026-04-25 02:00 | 42.64121 | -72.29713 | 3113 ft | 172 kts | 290° |
| 2026-04-25 02:01 | 42.64673 | -72.31095 | 2950 ft | 173 kts | 319° |
| 2026-04-25 02:01 | 42.65660 | -72.31967 | 2996 ft | 162 kts | 342° |
| 2026-04-25 02:01 | 42.66692 | -72.32307 | 3183 ft | 149 kts | 354° |
| 2026-04-25 02:01 | 42.67720 | -72.32100 | 3138 ft | 150 kts | 28° |
| 2026-04-25 02:02 | 42.68574 | -72.31202 | 3001 ft | 157 kts | 40° |
| 2026-04-25 02:02 | 42.69378 | -72.30247 | 3103 ft | 150 kts | 39° |
| 2026-04-25 02:02 | 42.70210 | -72.29399 | 3137 ft | 149 kts | 32° |
| 2026-04-25 02:02 | 42.71108 | -72.28690 | 3138 ft | 149 kts | 27° |
| 2026-04-25 02:03 | 42.72032 | -72.28137 | 3153 ft | 149 kts | 14° |
| 2026-04-25 02:03 | 42.73110 | -72.27980 | 2947 ft | 160 kts | 5° |
| 2026-04-25 02:03 | 42.74195 | -72.27991 | 3067 ft | 152 kts | 359° |
| 2026-04-25 02:03 | 42.75259 | -72.28068 | 2928 ft | 154 kts | 359° |
| 2026-04-25 02:04 | 42.76269 | -72.28081 | 2699 ft | 138 kts | 4° |
| 2026-04-25 02:04 | 42.77208 | -72.28053 | 2452 ft | 131 kts | 4° |
| 2026-04-25 02:04 | 42.78096 | -72.27986 | 2289 ft | 126 kts | 7° |
| 2026-04-25 02:04 | 42.78973 | -72.27912 | 2143 ft | 128 kts | 7° |
| 2026-04-25 02:05 | 42.79860 | -72.27805 | 1987 ft | 130 kts | 4° |
| 2026-04-25 02:05 | 42.80783 | -72.27742 | 1844 ft | 128 kts | 8° |
| 2026-04-25 02:05 | 42.81640 | -72.27651 | 1786 ft | 120 kts | 7° |
| 2026-04-25 02:05 | 42.82437 | -72.27575 | 1767 ft | 110 kts | 5° |
| 2026-04-25 02:06 | 42.83165 | -72.27545 | 1666 ft | 103 kts | 5° |
| 2026-04-25 02:06 | 42.83817 | -72.27504 | 1535 ft | 93 kts | 5° |
| 2026-04-25 02:06 | 42.84476 | -72.27433 | 1374 ft | 95 kts | 7° |
| 2026-04-25 02:06 | 42.85142 | -72.27388 | 1231 ft | 96 kts | 6° |
| 2026-04-25 02:07 | 42.85810 | -72.27327 | 1104 ft | 97 kts | 7° |
| 2026-04-25 02:07 | 42.86489 | -72.27266 | 980 ft | 98 kts | 6° |
| 2026-04-25 02:07 | 42.87169 | -72.27215 | 857 ft | 97 kts | 6° |
| 2026-04-25 02:07 | 42.87838 | -72.27162 | 705 ft | 95 kts | 5° |
| 2026-04-25 02:08 | 42.88487 | -72.27112 | 576 ft | 91 kts | 9° |
| 2026-04-25 02:08 | 42.89073 | -72.27047 | 474 ft | 72 kts | 2° |
| 2026-04-25 02:08 | 42.89402 | -72.27034 | 474 ft | 21 kts | 0° |
| 2026-04-25 02:08 | 42.89523 | -72.26970 | 474 ft | 20 kts | 93° |
| 2026-04-25 02:09 | 42.89517 | -72.26883 | 474 ft | 0 kts | 95° |
| 2026-04-25 02:09 | 42.89526 | -72.26840 | 471 ft | 12 kts | 42° |
| 2026-04-25 02:09 | 42.89643 | -72.26825 | 474 ft | 22 kts | 1° |
| 2026-04-25 02:09 | 42.89821 | -72.26817 | 474 ft | 29 kts | 358° |
| 2026-04-25 02:10 | 42.90035 | -72.26815 | 472 ft | 30 kts | 338° |
| 2026-04-25 02:10 | 42.90166 | -72.26804 | 473 ft | 15 kts | 81° |
| 2026-04-25 02:10 | 42.90218 | -72.26735 | 472 ft | 11 kts | 355° |
| 2026-04-25 02:10 | 42.90273 | -72.26762 | 472 ft | 5 kts | 274° |
| 2026-04-25 02:11 | 42.90272 | -72.26769 | 472 ft | 0 kts | 266° |